Time;durP1;ratioP1;P1;durP2;ratioP2;P2;SDS_P1;SDS_P2;PMS_P1;PMS_P2;Temp;Humidity;BMP_temperature;BMP_pressure;BME280_temperature;BME280_humidity;BME280_pressure;Samples;Min_cycle;Max_cycle;Signal;HPM_P1;HPM_P2
2023/12/28 00:02:42;;;;;;;6.30;5.70;;;1.50;99.90;;;2.13;100.00;98056.38;10482711;28;20228;-68
2023/12/28 00:07:45;;;;;;;6.73;6.23;;;1.50;99.90;;;2.21;99.93;98063.91;10487330;28;20233;-68
2023/12/28 00:12:48;;;;;;;7.37;6.67;;;1.50;99.90;;;2.02;100.00;98062.94;10495986;28;20231;-68
2023/12/28 00:17:53;;;;;;;8.60;6.53;;;1.40;99.90;;;1.79;100.00;98054.13;10488568;28;20238;-67
2023/12/28 00:22:58;;;;;;;6.43;5.83;;;1.30;99.90;;;1.63;100.00;98073.63;10495560;28;20233;-67
2023/12/28 00:28:01;;;;;;;8.43;6.30;;;1.10;99.90;;;1.71;100.00;98072.69;10500320;28;20301;-69
2023/12/28 00:33:06;;;;;;;7.03;6.40;;;1.20;99.90;;;1.86;100.00;98069.81;10479182;28;20223;-68
2023/12/28 00:38:09;;;;;;;6.37;5.63;;;1.30;99.90;;;1.85;100.00;98080.66;10494198;28;20254;-68
2023/12/28 00:43:12;;;;;;;6.03;5.47;;;1.30;99.90;;;1.87;100.00;98071.63;10412886;28;20235;-67
2023/12/28 00:48:17;;;;;;;9.67;6.30;;;1.30;99.90;;;1.94;100.00;98081.50;10428302;28;20328;-68
2023/12/28 00:53:20;;;;;;;6.07;5.47;;;1.30;99.90;;;1.79;100.00;98074.28;10474609;28;20605;-68
2023/12/28 00:58:23;;;;;;;9.00;6.93;;;1.20;99.90;;;2.01;100.00;98081.34;10499528;28;20238;-68
2023/12/28 01:03:28;;;;;;;9.73;7.57;;;1.30;99.90;;;1.83;100.00;98083.00;10471110;28;20235;-67
2023/12/28 01:08:33;;;;;;;8.40;6.63;;;1.20;99.90;;;1.89;100.00;98090.25;10418144;28;20217;-67
2023/12/28 01:13:36;;;;;;;10.23;7.70;;;1.20;99.90;;;1.63;100.00;98092.84;10424851;28;20233;-67
2023/12/28 01:18:44;;;;;;;7.60;6.30;;;1.00;99.90;;;1.68;100.00;98090.03;10432230;28;20239;-68
2023/12/28 01:23:47;;;;;;;7.50;6.17;;;1.10;99.90;;;1.43;100.00;98083.41;10499981;28;20225;-68
2023/12/28 01:28:50;;;;;;;6.07;5.47;;;0.90;99.90;;;1.34;100.00;98089.34;10491616;28;20321;-68
2023/12/28 01:33:55;;;;;;;5.53;5.03;;;0.80;99.90;;;1.46;100.00;98086.22;10498937;28;20227;-68
2023/12/28 01:38:58;;;;;;;6.03;5.20;;;0.90;99.90;;;1.58;100.00;98092.44;10494843;28;20226;-66
2023/12/28 01:44:01;;;;;;;5.27;4.80;;;0.90;99.90;;;1.63;100.00;98106.34;10497463;28;20272;-67
2023/12/28 01:49:06;;;;;;;6.03;5.57;;;1.00;99.90;;;1.53;100.00;98104.56;10446207;28;20314;-66
2023/12/28 01:54:10;;;;;;;6.27;5.00;;;1.00;99.90;;;1.64;100.00;98113.16;10449693;28;20224;-68
2023/12/28 01:59:13;;;;;;;7.53;6.83;;;1.00;99.90;;;1.63;100.00;98103.84;10453883;28;20238;-70
2023/12/28 02:04:22;;;;;;;9.70;7.93;;;0.90;99.90;;;1.40;100.00;98113.31;10458302;28;20342;-68
2023/12/28 02:09:25;;;;;;;6.80;5.87;;;0.80;99.90;;;1.25;100.00;98126.22;10452429;28;20230;-68
2023/12/28 02:14:29;;;;;;;7.73;7.00;;;0.70;99.90;;;1.25;100.00;98118.66;10492434;28;20280;-67
2023/12/28 02:19:43;;;;;;;5.93;5.13;;;0.70;99.90;;;1.31;100.00;98139.38;10500951;28;20266;-68
2023/12/28 02:25:08;;;;;;;6.77;6.17;;;0.80;99.90;;;1.37;100.00;98145.75;10489966;28;20527;-67
2023/12/28 02:30:12;;;;;;;9.77;8.63;;;0.70;99.90;;;1.16;100.00;98139.56;10492047;28;20731;-68
2023/12/28 02:35:21;;;;;;;10.33;8.67;;;0.70;99.90;;;1.29;100.00;98140.91;10454518;28;1072912;-66
2023/12/28 02:40:27;;;;;;;8.47;7.57;;;0.80;99.90;;;1.39;100.00;98149.31;10492530;28;20224;-66
2023/12/28 02:45:30;;;;;;;7.90;7.10;;;0.80;99.90;;;1.39;100.00;98147.69;10498247;28;20306;-67
2023/12/28 02:50:34;;;;;;;6.10;4.30;;;0.80;99.90;;;1.51;100.00;98161.47;10494821;28;20240;-66
2023/12/28 02:55:39;;;;;;;7.57;6.60;;;0.80;99.90;;;1.42;100.00;98152.13;10493331;28;20235;-68
2023/12/28 03:00:42;;;;;;;5.80;5.20;;;0.80;99.90;;;1.24;100.00;98154.66;10490825;28;20242;-66
2023/12/28 03:05:45;;;;;;;6.33;5.73;;;0.70;99.90;;;1.28;100.00;98146.66;10472581;28;20255;-66
2023/12/28 03:10:50;;;;;;;3.60;3.40;;;0.70;99.90;;;1.42;100.00;98144.59;10429570;28;20238;-66
2023/12/28 03:15:54;;;;;;;4.67;4.13;;;0.80;99.90;;;1.09;100.00;98131.41;10442174;28;20230;-67
2023/12/28 03:20:57;;;;;;;4.60;4.20;;;0.60;99.90;;;1.13;100.00;98133.47;10487884;28;20224;-68
2023/12/28 03:26:03;;;;;;;4.80;4.40;;;0.60;99.90;;;1.26;100.00;98133.03;10493835;28;20295;-66
2023/12/28 03:31:06;;;;;;;4.80;4.50;;;0.70;99.90;;;1.26;100.00;98143.13;10494344;28;20312;-66
2023/12/28 03:36:19;;;;;;;5.90;5.37;;;0.70;99.90;;;1.19;100.00;98140.72;10490971;28;20226;-65
2023/12/28 03:41:24;;;;;;;4.50;4.20;;;0.70;99.90;;;1.15;100.00;98133.63;10466885;28;20236;-66
2023/12/28 03:46:27;;;;;;;5.00;4.60;;;0.60;99.90;;;1.21;100.00;98133.34;10419636;28;20227;-66
2023/12/28 03:51:30;;;;;;;6.30;5.70;;;0.60;99.90;;;1.42;100.00;98129.47;10418941;28;20285;-68
2023/12/28 03:56:39;;;;;;;4.73;4.37;;;0.70;99.90;;;1.35;100.00;98136.44;10415938;28;20239;-68
2023/12/28 04:01:42;;;;;;;4.30;3.90;;;0.80;99.90;;;1.57;100.00;98146.97;10423196;28;20846;-66
2023/12/28 04:06:46;;;;;;;4.17;3.80;;;1.00;99.90;;;1.87;100.00;98142.16;10408817;28;20237;-68
2023/12/28 04:11:50;;;;;;;6.77;5.90;;;1.30;99.90;;;1.80;100.00;98146.63;10440133;28;20778;-67
2023/12/28 04:16:53;;;;;;;4.73;4.33;;;1.20;99.90;;;1.82;100.00;98129.13;10474475;28;20388;-67
2023/12/28 04:21:56;;;;;;;4.80;4.33;;;1.30;99.90;;;2.00;100.00;98120.78;10446410;28;21887;-67
2023/12/28 04:27:01;;;;;;;4.80;4.40;;;1.50;99.90;;;2.15;100.00;98103.69;10491547;28;20239;-68
2023/12/28 04:32:05;;;;;;;4.67;4.37;;;1.70;99.90;;;2.43;100.00;98099.56;10493775;28;20292;-67
2023/12/28 04:37:08;;;;;;;5.07;4.67;;;1.90;99.90;;;2.51;100.00;98087.63;10488393;28;20230;-68
2023/12/28 04:42:12;;;;;;;5.17;4.77;;;1.90;99.90;;;2.82;100.00;98086.25;10494266;28;20319;-66
2023/12/28 04:47:15;;;;;;;5.43;4.90;;;2.30;99.90;;;3.04;99.39;98091.63;10472082;28;20225;-67
2023/12/28 04:52:18;;;;;;;5.13;4.63;;;2.40;99.90;;;2.92;100.00;98093.94;10465248;28;20319;-69
2023/12/28 04:57:24;;;;;;;4.60;4.23;;;2.40;99.90;;;3.01;100.00;98092.97;10410962;28;20240;-69
2023/12/28 05:02:27;;;;;;;5.00;4.63;;;2.40;99.90;;;3.08;100.00;98101.22;10410004;28;20226;-68
2023/12/28 05:07:30;;;;;;;7.43;6.73;;;2.60;99.90;;;3.07;100.00;98096.94;10411985;28;20601;-66
2023/12/28 05:12:35;;;;;;;6.33;5.73;;;2.50;99.90;;;2.92;100.00;98100.63;10412266;28;20267;-68
2023/12/28 05:17:46;;;;;;;7.03;6.47;;;2.40;99.90;;;3.15;100.00;98098.50;10414832;28;20226;-67
2023/12/28 05:22:50;;;;;;;6.73;6.13;;;2.70;99.90;;;3.35;100.00;98089.28;10414217;28;20726;-67
2023/12/28 05:27:54;;;;;;;5.73;5.33;;;2.90;99.90;;;3.55;100.00;98102.03;10440275;28;20311;-66
2023/12/28 05:32:57;;;;;;;4.73;4.27;;;3.10;99.90;;;3.97;99.33;98092.97;10492367;28;20255;-68
2023/12/28 05:38:01;;;;;;;6.00;5.40;;;3.50;99.90;;;4.39;97.52;98095.75;10476239;28;20707;-66
2023/12/28 05:43:05;;;;;;;7.43;6.73;;;3.90;99.90;;;4.44;96.23;98094.50;10452704;28;20216;-67
2023/12/28 05:48:08;;;;;;;6.97;6.37;;;3.90;99.90;;;4.47;95.51;98104.88;10424037;28;20264;-68
2023/12/28 05:53:13;;;;;;;6.07;5.53;;;4.00;99.90;;;4.36;96.94;98114.84;10426216;28;20348;-67
2023/12/28 05:58:18;;;;;;;5.90;5.40;;;3.80;99.90;;;4.48;97.06;98109.16;10423996;28;20244;-67
2023/12/28 06:03:21;;;;;;;5.90;5.40;;;3.90;99.90;;;4.57;97.49;98100.56;10506011;28;20956;-68
2023/12/28 06:08:25;;;;;;;6.40;5.80;;;4.00;99.90;;;5.00;93.98;98124.41;10486685;28;20231;-67
2023/12/28 06:13:31;;;;;;;6.87;5.90;;;4.40;99.90;;;5.07;94.45;98131.78;10495793;28;20337;-68
2023/12/28 06:18:34;;;;;;;5.93;5.43;;;4.50;99.90;;;5.02;95.57;98144.03;10455913;28;20313;-67
2023/12/28 06:23:38;;;;;;;6.30;5.70;;;4.40;99.90;;;4.86;96.31;98146.94;10414025;28;20619;-67
2023/12/28 06:28:42;;;;;;;5.27;4.77;;;4.40;99.90;;;5.01;94.76;98139.75;10417345;28;20718;-66
2023/12/28 06:33:46;;;;;;;4.43;4.13;;;4.50;99.90;;;5.24;93.20;98135.69;10448945;28;20723;-66
2023/12/28 06:38:49;;;;;;;4.33;4.03;;;4.80;99.90;;;5.61;91.18;98137.91;10497821;28;20224;-69
2023/12/28 06:43:54;;;;;;;4.00;3.70;;;5.00;99.90;;;5.71;90.47;98143.72;10473164;28;20221;-67
2023/12/28 06:48:58;;;;;;;5.13;4.73;;;5.10;99.90;;;5.88;89.08;98146.81;10416199;28;20311;-67
2023/12/28 06:54:02;;;;;;;4.63;4.13;;;5.30;99.90;;;5.95;87.97;98155.84;10448589;28;20896;-67
2023/12/28 06:59:06;;;;;;;4.57;4.17;;;5.40;99.90;;;6.12;89.34;98157.16;10489354;28;20234;-66
2023/12/28 07:04:10;;;;;;;20.70;19.23;;;5.50;99.90;;;6.11;89.01;98151.97;10468800;28;20236;-67
2023/12/28 07:09:13;;;;;;;7.33;6.83;;;5.50;99.90;;;5.99;90.43;98147.72;10453564;28;20676;-66
2023/12/28 07:14:17;;;;;;;4.87;4.50;;;5.40;99.90;;;6.03;90.08;98147.16;10454002;28;20234;-68
2023/12/28 07:19:20;;;;;;;4.60;4.23;;;5.50;99.90;;;6.19;90.44;98143.31;10438265;28;20561;-67
2023/12/28 07:24:24;;;;;;;7.27;6.77;;;5.60;99.90;;;6.40;90.94;98149.19;10499479;28;20227;-66
2023/12/28 07:29:29;;;;;;;7.40;6.80;;;5.70;99.90;;;6.12;92.84;98152.09;10492830;28;20311;-67
2023/12/28 07:34:32;;;;;;;7.87;7.17;;;5.40;99.90;;;6.07;93.79;98149.19;10487997;28;20259;-67
2023/12/28 07:39:35;;;;;;;6.97;6.37;;;5.30;99.90;;;5.98;95.13;98168.78;10449387;28;20231;-68
2023/12/28 07:44:40;;;;;;;5.30;4.90;;;5.40;99.90;;;6.13;95.33;98163.16;10496723;28;20256;-68
2023/12/28 07:49:43;;;;;;;6.70;6.10;;;5.50;99.90;;;6.22;95.44;98167.28;10466999;28;20320;-68
2023/12/28 07:54:46;;;;;;;6.87;6.33;;;5.50;99.90;;;6.17;95.80;98176.19;10411667;28;20233;-68
2023/12/28 07:59:51;;;;;;;8.00;7.37;;;5.50;99.90;;;6.14;97.13;98180.13;10439720;28;21445;-67
2023/12/28 08:04:54;;;;;;;8.50;7.70;;;5.40;99.90;;;6.11;97.53;98180.78;10490312;28;20270;-68
2023/12/28 08:09:57;;;;;;;7.27;6.60;;;5.40;99.90;;;6.15;98.44;98192.03;10459070;28;20233;-71
2023/12/28 08:15:02;;;;;;;6.30;5.77;;;5.50;99.90;;;6.23;98.23;98181.72;10476899;28;20220;-70
2023/12/28 08:20:07;;;;;;;6.67;6.10;;;5.60;99.90;;;6.35;97.81;98186.00;10487583;28;20320;-69
2023/12/28 08:25:10;;;;;;;9.37;8.27;;;5.70;99.90;;;6.42;97.34;98198.44;10485607;28;20755;-71
2023/12/28 08:30:16;;;;;;;11.97;10.13;;;5.70;99.90;;;6.45;97.56;98193.59;10482507;28;20709;-69
2023/12/28 08:35:19;;;;;;;10.53;9.53;;;5.70;99.90;;;6.50;96.52;98194.84;10491372;28;20222;-69
2023/12/28 08:40:22;;;;;;;6.97;6.37;;;5.70;99.90;;;6.40;95.23;98184.72;10484944;28;22642;-67
2023/12/28 08:45:26;;;;;;;8.20;7.50;;;5.60;99.90;;;6.36;96.27;98168.38;10489124;28;20226;-68
2023/12/28 08:50:30;;;;;;;8.70;7.90;;;5.70;99.90;;;6.43;97.67;98179.88;10488181;28;20243;-70
2023/12/28 08:55:33;;;;;;;7.60;7.00;;;5.80;99.90;;;6.56;97.73;98180.06;10491750;28;20224;-68
2023/12/28 09:00:38;;;;;;;11.50;10.30;;;6.00;99.90;;;6.77;97.56;98180.84;10488358;28;20232;-68
2023/12/28 09:05:41;;;;;;;13.40;11.63;;;6.00;99.90;;;6.80;98.27;98187.81;10474702;28;20239;-69
2023/12/28 09:10:44;;;;;;;11.80;10.60;;;6.10;99.90;;;6.71;97.43;98193.94;10497232;28;20216;-67
2023/12/28 09:15:50;;;;;;;10.30;9.37;;;6.00;99.90;;;6.74;97.13;98186.56;10495834;28;20737;-69
2023/12/28 09:20:53;;;;;;;9.77;8.80;;;6.00;99.90;;;6.73;96.50;98197.50;10420832;28;20240;-68
2023/12/28 09:25:57;;;;;;;9.27;8.30;;;6.00;99.90;;;6.91;93.19;98192.06;10423556;28;20236;-69
2023/12/28 09:31:02;;;;;;;9.57;8.60;;;6.10;99.90;;;6.78;92.91;98200.38;10462481;28;20228;-69
2023/12/28 09:36:07;;;;;;;9.43;8.43;;;6.10;99.90;;;6.81;95.22;98189.56;10437791;28;20225;-69
2023/12/28 09:41:14;;;;;;;10.37;9.37;;;6.20;99.90;;;6.91;97.00;98192.94;10492171;28;20239;-68
2023/12/28 09:46:19;;;;;;;10.13;9.23;;;6.30;99.90;;;7.15;97.36;98193.94;10466029;28;20316;-66
2023/12/28 09:51:22;;;;;;;9.77;8.83;;;6.50;99.90;;;7.15;96.51;98188.84;10427668;28;20226;-68
2023/12/28 09:56:26;;;;;;;9.17;7.77;;;6.40;99.90;;;7.20;97.74;98189.19;10445220;28;20227;-67
2023/12/28 10:01:35;;;;;;;9.80;8.90;;;6.50;99.90;;;7.32;98.36;98191.75;10471792;28;20303;-68
2023/12/28 10:06:38;;;;;;;9.53;8.57;;;6.70;99.90;;;7.45;99.22;98189.34;10483183;28;20665;-67
2023/12/28 10:11:42;;;;;;;8.90;8.10;;;6.80;99.90;;;7.66;99.39;98184.97;10453613;28;20324;-68
2023/12/28 10:16:49;;;;;;;8.20;7.50;;;7.00;99.90;;;7.86;99.22;98183.88;10440868;28;20263;-69
2023/12/28 10:21:52;;;;;;;11.70;10.60;;;7.20;99.90;;;8.02;98.39;98186.75;10439059;28;20261;-69
2023/12/28 10:26:56;;;;;;;13.03;11.80;;;7.30;99.90;;;8.05;98.25;98192.06;10483317;28;20724;-70
2023/12/28 10:32:01;;;;;;;13.43;12.13;;;7.30;99.90;;;8.10;98.11;98185.66;10451271;28;20319;-69
2023/12/28 10:37:06;;;;;;;15.50;13.37;;;7.40;99.90;;;8.19;98.22;98190.50;10471776;28;20765;-68
2023/12/28 10:42:14;;;;;;;14.47;13.17;;;7.50;99.90;;;8.24;98.18;98188.28;10456361;28;20384;-69
2023/12/28 10:47:20;;;;;;;12.73;11.53;;;7.50;99.90;;;8.35;98.43;98182.28;10416663;28;20291;-69
2023/12/28 10:52:29;;;;;;;14.07;12.77;;;7.60;99.90;;;8.46;98.23;98173.78;10406721;28;20230;-70
2023/12/28 10:57:41;;;;;;;19.70;17.43;;;7.70;99.90;;;8.47;97.64;98177.19;10416678;28;20236;-68
2023/12/28 11:02:51;;;;;;;17.00;15.20;;;7.70;99.90;;;8.48;99.07;98168.81;10455905;28;20230;-69
2023/12/28 11:07:58;;;;;;;16.63;14.90;;;7.80;99.90;;;8.70;98.19;98166.97;10491666;28;20246;-67
2023/12/28 11:13:03;;;;;;;19.63;17.73;;;8.00;99.90;;;8.83;97.54;98178.00;10493509;28;20323;-67
2023/12/28 11:18:08;;;;;;;16.23;14.52;;;8.10;99.90;;;8.91;96.11;98162.47;10488620;28;20232;-67
2023/12/28 11:23:12;;;;;;;11.57;10.40;;;8.20;99.90;;;9.16;94.75;98154.81;10488947;28;20644;-66
2023/12/28 11:28:15;;;;;;;10.98;9.85;;;8.40;99.90;;;9.45;92.60;98153.31;10461715;28;20246;-68
2023/12/28 11:33:20;;;;;;;8.85;7.97;;;8.70;99.90;;;9.64;90.29;98150.28;10424870;28;20665;-67
2023/12/28 11:38:24;;;;;;;7.80;7.10;;;9.00;99.90;;;9.76;87.66;98139.97;10426628;28;20320;-67
2023/12/28 11:43:33;;;;;;;7.20;6.50;;;9.10;99.90;;;9.90;87.22;98127.34;10449391;28;20603;-67
2023/12/28 11:48:37;;;;;;;7.25;6.65;;;9.20;99.90;;;9.98;88.40;98129.47;10449373;28;20300;-68
2023/12/28 11:53:42;;;;;;;7.30;6.60;;;9.20;99.90;;;10.05;88.59;98124.00;10468145;28;20536;-67
2023/12/28 11:58:47;;;;;;;7.60;6.90;;;9.30;99.90;;;10.09;87.75;98131.03;10445077;28;20218;-68
2023/12/28 12:03:52;;;;;;;8.07;7.35;;;9.40;99.90;;;10.11;88.53;98124.38;10412611;28;20232;-68
2023/12/28 12:08:57;;;;;;;11.25;10.25;;;9.40;99.90;;;10.06;89.39;98116.41;10404981;28;20228;-69
2023/12/28 12:14:00;;;;;;;12.88;11.18;;;9.30;99.90;;;10.05;91.18;98113.78;10404448;28;20601;-70
2023/12/28 12:19:06;;;;;;;36.03;20.38;;;9.30;99.90;;;9.99;90.05;98108.28;10486531;28;20261;-69
2023/12/28 12:24:10;;;;;;;43.83;23.92;;;9.20;99.90;;;10.04;90.12;98096.66;10482025;28;20800;-69
2023/12/28 12:29:14;;;;;;;37.95;20.17;;;9.20;99.90;;;10.07;89.97;98091.75;10446359;28;20315;-68
2023/12/28 12:34:19;;;;;;;28.42;19.10;;;9.30;99.90;;;10.10;88.05;98099.59;10484428;28;20333;-72
2023/12/28 12:39:24;;;;;;;21.15;16.02;;;9.30;99.90;;;10.13;88.05;98097.28;10450398;28;20232;-69
2023/12/28 12:44:28;;;;;;;15.05;13.15;;;9.40;99.90;;;10.18;87.89;98100.97;10462663;28;20218;-68
2023/12/28 12:49:32;;;;;;;16.13;11.68;;;9.40;99.90;;;10.23;86.55;98099.59;10418136;28;20225;-68
2023/12/28 12:54:35;;;;;;;12.35;11.05;;;9.40;99.90;;;10.19;88.43;98095.09;10413408;28;20218;-69
2023/12/28 12:59:39;;;;;;;10.55;9.52;;;9.40;99.90;;;10.11;89.13;98084.38;10421257;28;20228;-68
2023/12/28 13:04:43;;;;;;;10.45;9.40;;;9.40;99.90;;;10.11;90.04;98086.06;10422979;28;20605;-68
2023/12/28 13:09:47;;;;;;;8.35;7.55;;;9.40;99.90;;;10.10;89.76;98085.19;10490132;28;20712;-68
2023/12/28 13:14:50;;;;;;;9.68;8.77;;;9.40;99.90;;;9.94;92.81;98085.00;10457373;28;20697;-67
2023/12/28 13:19:54;;;;;;;17.58;15.75;;;9.30;99.90;;;9.86;93.08;98092.16;10484849;28;20700;-68
2023/12/28 13:24:58;;;;;;;14.00;12.80;;;9.30;99.90;;;9.82;95.19;98090.22;10447963;28;20291;-68
2023/12/28 13:30:01;;;;;;;12.68;11.48;;;9.20;99.90;;;9.77;97.20;98095.81;10469828;28;20655;-68
2023/12/28 13:35:06;;;;;;;11.38;10.27;;;9.10;99.90;;;9.71;97.35;98093.75;10480791;28;20270;-68
2023/12/28 13:40:11;;;;;;;12.30;10.70;;;9.10;99.90;;;9.64;98.62;98091.59;10460319;28;20225;-68
2023/12/28 13:45:16;;;;;;;12.07;10.80;;;9.00;99.90;;;9.62;98.42;98094.06;10413306;28;20233;-68
2023/12/28 13:50:20;;;;;;;11.25;9.93;;;9.00;99.90;;;9.61;99.89;98099.91;10408469;28;20225;-68
2023/12/28 13:55:24;;;;;;;12.73;11.52;;;9.00;99.90;;;9.53;100.00;98105.31;10413503;28;20226;-67
2023/12/28 14:00:27;;;;;;;13.20;12.00;;;8.90;99.90;;;9.46;100.00;98094.72;10419764;28;20642;-67
2023/12/28 14:05:32;;;;;;;12.95;11.65;;;8.90;99.90;;;9.39;100.00;98105.31;10493912;28;20311;-68
2023/12/28 14:10:39;;;;;;;12.88;11.52;;;8.80;99.90;;;9.31;100.00;98103.94;10477346;28;20225;-68
2023/12/28 14:15:42;;;;;;;12.65;11.45;;;8.70;99.90;;;9.33;100.00;98101.47;10491915;28;20318;-68
2023/12/28 14:20:46;;;;;;;14.30;13.00;;;8.70;99.90;;;9.34;100.00;98100.69;10458851;28;20225;-68
2023/12/28 14:25:53;;;;;;;16.60;14.85;;;8.70;99.90;;;9.27;100.00;98099.41;10408636;28;20229;-66
2023/12/28 14:30:57;;;;;;;24.90;21.17;;;8.70;99.90;;;9.25;100.00;98096.75;10409445;28;20298;-65
2023/12/28 14:36:03;;;;;;;21.02;18.67;;;8.70;99.90;;;9.20;100.00;98107.44;10426759;28;20234;-67
2023/12/28 14:41:06;;;;;;;18.02;16.13;;;8.60;99.90;;;9.15;100.00;98101.13;10482405;28;20318;-67
2023/12/28 14:46:10;;;;;;;16.25;14.55;;;8.60;99.90;;;9.10;100.00;98100.84;10446420;28;20315;-66
2023/12/28 14:51:14;;;;;;;14.38;13.05;;;8.50;99.90;;;9.11;100.00;98083.88;10453354;28;20251;-67
2023/12/28 14:56:17;;;;;;;14.70;13.25;;;8.50;99.90;;;9.12;100.00;98085.63;10419435;28;20721;-68
2023/12/28 15:01:21;;;;;;;10.98;9.98;;;8.60;99.90;;;9.14;100.00;98089.19;10462298;28;20707;-66
2023/12/28 15:06:26;;;;;;;11.73;10.52;;;8.60;99.90;;;9.10;100.00;98088.09;10456613;28;20237;-68
2023/12/28 15:11:29;;;;;;;23.27;16.40;;;8.50;99.90;;;9.05;100.00;98081.81;10412332;28;20728;-66
2023/12/28 15:16:50;;;;;;;41.45;25.95;;;8.50;99.90;;;8.99;100.00;98081.41;10420058;28;20231;-68
2023/12/28 15:21:56;;;;;;;29.73;23.60;;;8.40;99.90;;;8.90;100.00;98075.66;10440339;28;20229;-66
2023/12/28 15:26:59;;;;;;;35.45;28.70;;;8.30;99.90;;;8.92;100.00;98079.22;10482551;28;20223;-64
2023/12/28 15:32:02;;;;;;;27.85;23.40;;;8.30;99.90;;;8.88;100.00;98073.03;10491192;28;20322;-65
2023/12/28 15:37:07;;;;;;;24.02;20.55;;;8.30;99.90;;;8.86;100.00;98071.16;10450459;28;20231;-66
2023/12/28 15:42:10;;;;;;;20.75;18.55;;;8.30;99.90;;;8.78;100.00;98065.53;10481253;28;20235;-67
2023/12/28 15:47:13;;;;;;;17.33;15.60;;;8.20;99.90;;;8.79;100.00;98074.97;10420230;28;20524;-66
2023/12/28 15:52:18;;;;;;;42.50;31.35;;;8.20;99.90;;;8.76;100.00;98074.78;10438475;28;20228;-66
2023/12/28 15:57:21;;;;;;;32.05;23.13;;;8.20;99.90;;;8.77;100.00;98082.50;10408033;28;20236;-67
2023/12/28 16:02:25;;;;;;;39.10;27.85;;;8.20;99.90;;;8.80;100.00;98087.81;10415739;28;20324;-67
2023/12/28 16:07:29;;;;;;;21.85;18.85;;;8.20;99.90;;;8.84;100.00;98086.34;10466286;28;20220;-67
2023/12/28 16:12:32;;;;;;;19.70;16.55;;;8.30;99.90;;;8.89;100.00;98074.78;10490146;28;20240;-68
2023/12/28 16:17:36;;;;;;;18.30;15.77;;;8.30;99.90;;;8.87;100.00;98073.81;10476737;28;20229;-68
2023/12/28 16:22:42;;;;;;;13.82;12.43;;;8.20;99.90;;;8.84;100.00;98071.03;10455113;28;20598;-67
2023/12/28 16:27:45;;;;;;;13.30;11.90;;;8.20;99.90;;;8.80;100.00;98072.50;10476847;28;20224;-67
2023/12/28 16:32:48;;;;;;;11.88;10.70;;;8.20;99.90;;;8.73;100.00;98084.75;10487221;28;20227;-67
2023/12/28 16:37:53;;;;;;;11.02;9.77;;;8.10;99.90;;;8.80;100.00;98076.72;10479709;28;20595;-68
2023/12/28 16:42:56;;;;;;;8.98;8.02;;;8.10;99.90;;;8.90;100.00;98073.13;10486806;28;20366;-68
2023/12/28 16:47:59;;;;;;;9.55;8.82;;;8.20;99.90;;;8.85;100.00;98074.50;10477922;28;20224;-67
2023/12/28 16:53:05;;;;;;;8.88;8.13;;;8.20;99.90;;;8.85;100.00;98062.63;10469486;28;20245;-68
2023/12/28 16:58:08;;;;;;;10.07;9.18;;;8.30;99.90;;;8.86;100.00;98061.84;10406979;28;20623;-66
2023/12/28 17:03:11;;;;;;;8.32;7.60;;;8.20;99.90;;;8.90;100.00;98068.94;10475040;28;20244;-65
2023/12/28 17:08:16;;;;;;;8.13;7.35;;;8.30;99.90;;;8.95;100.00;98072.66;10471503;28;20232;-67
2023/12/28 17:13:22;;;;;;;6.82;6.15;;;8.30;99.90;;;8.91;100.00;98060.50;10487828;28;20236;-65
2023/12/28 17:18:26;;;;;;;9.85;8.93;;;8.40;99.90;;;9.06;100.00;98060.63;10486815;28;20316;-65
2023/12/28 17:23:37;;;;;;;14.60;13.18;;;8.40;99.90;;;8.94;100.00;98065.78;10485851;28;20240;-68
2023/12/28 17:28:48;;;;;;;39.35;34.88;;;8.30;99.90;;;8.86;100.00;98061.84;10482595;28;20244;-70
2023/12/28 17:33:52;;;;;;;10.27;9.38;;;8.30;99.90;;;8.85;100.00;98052.44;10467607;28;20228;-68
2023/12/28 17:39:01;;;;;;;7.07;6.47;;;8.30;99.90;;;9.00;100.00;98056.00;10463020;28;20255;-67
2023/12/28 17:44:08;;;;;;;6.82;6.22;;;8.40;99.90;;;8.95;100.00;98057.34;10442078;28;20229;-66
2023/12/28 17:49:15;;;;;;;9.27;8.25;;;8.40;99.90;;;8.96;100.00;98048.94;10426221;28;20519;-65
2023/12/28 17:54:20;;;;;;;9.20;8.30;;;8.40;99.90;;;9.03;100.00;98056.19;10492470;28;20228;-66
2023/12/28 17:59:24;;;;;;;6.28;5.78;;;8.50;99.90;;;9.11;100.00;98049.06;10479041;28;20300;-66
2023/12/28 18:04:32;;;;;;;7.00;6.32;;;8.50;99.90;;;9.16;100.00;98057.03;10412854;28;20249;-68
2023/12/28 18:09:40;;;;;;;45.33;28.85;;;8.60;99.90;;;9.17;100.00;98061.34;10405099;28;20233;-68
2023/12/28 18:14:43;;;;;;;15.27;12.93;;;8.60;99.90;;;9.14;100.00;98053.47;10424207;28;20231;-65
2023/12/28 18:19:48;;;;;;;8.02;7.38;;;8.60;99.90;;;9.18;100.00;98058.00;10487621;28;20339;-67
2023/12/28 18:24:52;;;;;;;8.68;7.88;;;8.70;99.90;;;9.17;100.00;98058.78;10490454;28;20323;-66
2023/12/28 18:29:56;;;;;;;7.90;7.10;;;8.60;99.90;;;9.11;100.00;98058.38;10493870;28;20236;-65
2023/12/28 18:34:59;;;;;;;6.40;5.90;;;8.60;99.90;;;9.13;100.00;98051.69;10490374;28;20650;-68
2023/12/28 18:40:04;;;;;;;7.38;6.72;;;8.60;99.90;;;9.12;100.00;98060.13;10491215;28;20644;-70
2023/12/28 18:45:09;;;;;;;8.20;7.50;;;8.50;99.90;;;9.10;100.00;98062.59;10488610;28;20219;-66
2023/12/28 18:50:12;;;;;;;48.53;39.90;;;8.50;99.90;;;9.09;100.00;98065.03;10489037;28;20235;-67
2023/12/28 18:55:17;;;;;;;14.07;12.65;;;8.50;99.90;;;9.11;100.00;98076.22;10493489;28;20731;-69
2023/12/28 19:00:20;;;;;;;9.43;8.63;;;8.50;99.90;;;9.16;100.00;98072.31;10471729;28;20237;-69
2023/12/28 19:05:23;;;;;;;7.88;7.07;;;8.60;99.90;;;9.17;100.00;98074.09;10492463;28;20370;-67
2023/12/28 19:10:28;;;;;;;7.00;6.40;;;8.60;99.90;;;9.13;100.00;98077.19;10494534;28;20256;-67
2023/12/28 19:15:31;;;;;;;6.45;5.95;;;8.60;99.90;;;9.22;100.00;98085.47;10419470;28;20221;-67
2023/12/28 19:20:34;;;;;;;6.32;5.75;;;8.60;99.90;;;9.25;100.00;98090.78;10409193;28;20236;-66
2023/12/28 19:25:39;;;;;;;4.60;4.30;;;8.70;99.90;;;9.24;100.00;98091.53;10420872;28;20530;-68
2023/12/28 19:30:42;;;;;;;5.35;4.95;;;8.70;99.90;;;9.40;99.42;98093.44;10419217;28;20256;-67
2023/12/28 19:35:46;;;;;;;4.80;4.40;;;8.90;99.90;;;9.46;100.00;98091.28;10467928;28;21688;-66
2023/12/28 19:40:50;;;;;;;4.75;4.35;;;8.90;99.90;;;9.61;99.76;98091.38;10412897;28;20337;-66
2023/12/28 19:45:55;;;;;;;5.30;4.80;;;9.00;99.90;;;9.44;100.00;98096.31;10445258;28;20243;-65
2023/12/28 19:50:58;;;;;;;4.88;4.57;;;9.00;99.90;;;9.46;100.00;98089.59;10474014;28;20329;-64
2023/12/28 19:56:03;;;;;;;7.70;5.82;;;8.90;99.90;;;9.48;100.00;98098.25;10479637;28;20223;-67
2023/12/28 20:01:08;;;;;;;43.28;38.67;;;8.90;99.90;;;9.53;100.00;98096.00;10490270;28;20319;-68
2023/12/28 20:06:12;;;;;;;5.75;5.25;;;9.00;99.90;;;9.62;100.00;98104.25;10425800;28;20251;-66
2023/12/28 20:11:16;;;;;;;4.70;4.40;;;9.10;99.90;;;9.80;98.51;98101.13;10463797;28;20235;-67
2023/12/28 20:16:20;;;;;;;3.75;3.42;;;9.10;99.90;;;9.83;97.40;98097.09;10459953;28;20253;-66
2023/12/28 20:21:23;;;;;;;4.68;4.28;;;9.40;99.90;;;9.97;99.52;98104.75;10431388;28;20235;-67
2023/12/28 20:26:27;;;;;;;4.10;3.75;;;9.40;99.90;;;10.05;97.92;98103.56;10451132;28;20251;-66
2023/12/28 20:31:31;;;;;;;4.00;3.70;;;9.50;99.90;;;10.07;97.14;98094.31;10468773;28;20244;-67
2023/12/28 20:36:35;;;;;;;100.38;70.68;;;9.60;99.90;;;10.03;95.60;98095.78;10488274;28;20246;-67
2023/12/28 20:41:39;;;;;;;7.90;7.30;;;9.80;99.90;;;10.02;97.47;98090.59;10437431;28;20322;-66
2023/12/28 20:46:42;;;;;;;8.20;7.40;;;9.60;99.90;;;10.02;96.59;98081.25;10459016;28;20250;-67
2023/12/28 20:51:46;;;;;;;4.72;4.32;;;9.60;99.90;;;10.02;97.74;98073.59;10485206;28;20997;-67
2023/12/28 20:56:51;;;;;;;6.70;6.00;;;9.60;99.90;;;9.98;97.36;98075.84;10465998;28;20267;-73
2023/12/28 21:01:54;;;;;;;3.53;3.33;;;9.60;99.90;;;10.08;96.10;98073.97;10438942;28;20477;-67
2023/12/28 21:06:57;;;;;;;3.90;3.70;;;9.70;99.90;;;10.09;96.28;98070.63;10490632;28;20228;-68
2023/12/28 21:12:02;;;;;;;4.25;3.95;;;9.60;99.90;;;9.98;97.13;98070.75;10492858;28;20345;-65
2023/12/28 21:17:05;;;;;;;4.10;3.80;;;9.50;99.90;;;10.00;97.58;98064.06;10477464;28;20220;-66